PWSweather.com
Personal Weather Stations
Station Observations
PAGFWS20
VaudreuilDorion, VaudreuilDorion, QC j7v 1b1

VaudreuilDorionVaudreuilDorion, QC j7v 1b1

Lat: 45.401, Lon: -74.03

Elevation: 73

Station Type: PCE-FWS-20

http://www.zpag.net/weather/index.htm

Latest ConditionsUpdated 8:50:02 AM EST Tuesday, Jan 23, 2018
Currently Today's Max Today's Min Today's Average
Temperature 25.7°F-3.5°C 25.7°F-3.5°C 21.9°F-5.6°C 23.4°F-4.8°C
Dew Point 21.0°F-6.1°C 21.0°F-6.1°C 16.7°F-8.5°C 18.5°F-7.5°C
Winds Calm Calm Calm Calm - Calm Calm
Wind Gusts -- -- - -
Humidity 82% 83% 80% 81%
Pressure 29.98 in1015.2 mb 30.25 in1024.4 mb 29.95 in1014.2 mb -
Precipitation - 0.20 in5.1 mm - -
Hour Temp Dew Point Humidity Winds Wind Gusts Pressure Precip Precip Rate Daily Precip Total
08:50 AM 25.7°F-3.5°C 21.0°F-6.1°C 82% Calm Calm -- 29.98 in1015.2 mb 0.00 in0.0 mm 0.00 in0.0 mm 0.20 in5.1 mm
08:45 AM 25.5°F-3.6°C 20.8°F-6.2°C 82% Calm Calm -- 29.98 in1015.2 mb 0.00 in0.0 mm 0.00 in0.0 mm 0.20 in5.1 mm
08:40 AM 25.5°F-3.6°C 20.8°F-6.2°C 82% Calm Calm -- 29.99 in1015.6 mb 0.00 in0.0 mm 0.00 in0.0 mm 0.20 in5.1 mm
08:35 AM 25.3°F-3.7°C 20.6°F-6.3°C 82% Calm Calm -- 29.99 in1015.6 mb 0.00 in0.0 mm 0.00 in0.0 mm 0.20 in5.1 mm
08:30 AM 25.2°F-3.8°C 20.5°F-6.4°C 82% Calm Calm -- 29.99 in1015.6 mb 0.00 in0.0 mm 0.00 in0.0 mm 0.20 in5.1 mm
08:25 AM 25.3°F-3.7°C 20.6°F-6.3°C 82% Calm Calm -- 29.97 in1014.9 mb 0.00 in0.0 mm 0.00 in0.0 mm 0.20 in5.1 mm
08:20 AM 25.7°F-3.5°C 21.0°F-6.1°C 82% Calm Calm -- 29.96 in1014.6 mb 0.00 in0.0 mm 0.00 in0.0 mm 0.20 in5.1 mm
08:15 AM 25.5°F-3.6°C 20.8°F-6.2°C 82% Calm Calm -- 29.95 in1014.2 mb 0.00 in0.0 mm 0.00 in0.0 mm 0.20 in5.1 mm
08:10 AM 25.3°F-3.7°C 20.6°F-6.3°C 82% Calm Calm -- 29.95 in1014.2 mb 0.00 in0.0 mm 0.00 in0.0 mm 0.20 in5.1 mm
08:05 AM 25.2°F-3.8°C 20.5°F-6.4°C 82% Calm Calm -- 29.95 in1014.2 mb 0.00 in0.0 mm 0.00 in0.0 mm 0.20 in5.1 mm
08:00 AM 25.2°F-3.8°C 20.5°F-6.4°C 82% Calm Calm -- 29.95 in1014.2 mb 0.00 in0.0 mm 0.00 in0.0 mm 0.20 in5.1 mm
07:55 AM 25.2°F-3.8°C 20.5°F-6.4°C 82% Calm Calm -- 29.95 in1014.2 mb 0.00 in0.0 mm 0.00 in0.0 mm 0.20 in5.1 mm
07:50 AM 25.0°F-3.9°C 20.3°F-6.5°C 82% Calm Calm -- 29.95 in1014.2 mb 0.00 in0.0 mm 0.00 in0.0 mm 0.20 in5.1 mm
07:45 AM 24.8°F-4.0°C 20.1°F-6.6°C 82% Calm Calm -- 29.95 in1014.2 mb 0.00 in0.0 mm 0.00 in0.0 mm 0.20 in5.1 mm
07:40 AM 24.6°F-4.1°C 20.2°F-6.6°C 83% Calm Calm -- 29.97 in1014.9 mb 0.00 in0.0 mm 0.00 in0.0 mm 0.20 in5.1 mm
07:35 AM 24.6°F-4.1°C 20.2°F-6.6°C 83% Calm Calm -- 29.98 in1015.2 mb 0.00 in0.0 mm 0.00 in0.0 mm 0.20 in5.1 mm
07:30 AM 24.4°F-4.2°C 20.1°F-6.6°C 83% Calm Calm -- 29.98 in1015.2 mb 0.00 in0.0 mm 0.00 in0.0 mm 0.20 in5.1 mm
07:25 AM 24.4°F-4.2°C 19.8°F-6.8°C 82% Calm Calm -- 29.98 in1015.2 mb 0.00 in0.0 mm 0.00 in0.0 mm 0.20 in5.1 mm
07:20 AM 24.4°F-4.2°C 19.8°F-6.8°C 82% Calm Calm -- 29.97 in1014.9 mb 0.00 in0.0 mm 0.00 in0.0 mm 0.20 in5.1 mm
07:15 AM 24.3°F-4.3°C 19.6°F-6.9°C 82% Calm Calm -- 29.98 in1015.2 mb 0.00 in0.0 mm 0.00 in0.0 mm 0.20 in5.1 mm
07:10 AM 24.3°F-4.3°C 19.6°F-6.9°C 82% Calm Calm -- 29.98 in1015.2 mb 0.00 in0.0 mm 0.00 in0.0 mm 0.20 in5.1 mm
07:05 AM 24.3°F-4.3°C 19.6°F-6.9°C 82% Calm Calm -- 29.98 in1015.2 mb 0.00 in0.0 mm 0.00 in0.0 mm 0.20 in5.1 mm
07:00 AM 24.3°F-4.3°C 19.6°F-6.9°C 82% Calm Calm -- 29.98 in1015.2 mb 0.00 in0.0 mm 0.00 in0.0 mm 0.20 in5.1 mm
06:55 AM 24.3°F-4.3°C 19.6°F-6.9°C 82% Calm Calm -- 29.98 in1015.2 mb 0.00 in0.0 mm 0.00 in0.0 mm 0.20 in5.1 mm
06:50 AM 24.1°F-4.4°C 19.4°F-7.0°C 82% Calm Calm -- 30.00 in1015.9 mb 0.00 in0.0 mm 0.00 in0.0 mm 0.20 in5.1 mm
06:45 AM 24.1°F-4.4°C 19.4°F-7.0°C 82% Calm Calm -- 30.00 in1015.9 mb 0.00 in0.0 mm 0.00 in0.0 mm 0.20 in5.1 mm
06:40 AM 23.9°F-4.5°C 19.2°F-7.1°C 82% Calm Calm -- 30.00 in1015.9 mb 0.00 in0.0 mm 0.00 in0.0 mm 0.20 in5.1 mm
06:35 AM 23.7°F-4.6°C 19.1°F-7.2°C 82% Calm Calm -- 30.01 in1016.3 mb 0.00 in0.0 mm 0.00 in0.0 mm 0.20 in5.1 mm
06:30 AM 23.5°F-4.7°C 18.9°F-7.3°C 82% Calm Calm -- 30.02 in1016.6 mb 0.00 in0.0 mm 0.00 in0.0 mm 0.20 in5.1 mm
06:25 AM 23.5°F-4.7°C 18.6°F-7.4°C 81% Calm Calm -- 30.02 in1016.6 mb 0.00 in0.0 mm 0.00 in0.0 mm 0.20 in5.1 mm
06:20 AM 23.4°F-4.8°C 18.4°F-7.6°C 81% Calm Calm -- 30.02 in1016.6 mb 0.00 in0.0 mm 0.00 in0.0 mm 0.20 in5.1 mm
06:15 AM 23.4°F-4.8°C 18.4°F-7.6°C 81% Calm Calm -- 30.02 in1016.6 mb 0.00 in0.0 mm 0.00 in0.0 mm 0.20 in5.1 mm
06:10 AM 23.2°F-4.9°C 18.3°F-7.6°C 81% Calm Calm -- 30.03 in1016.9 mb 0.00 in0.0 mm 0.00 in0.0 mm 0.20 in5.1 mm
06:05 AM 23.2°F-4.9°C 18.3°F-7.6°C 81% Calm Calm -- 30.03 in1016.9 mb 0.00 in0.0 mm 0.00 in0.0 mm 0.20 in5.1 mm
06:00 AM 23.2°F-4.9°C 18.3°F-7.6°C 81% Calm Calm -- 30.03 in1016.9 mb 0.00 in0.0 mm 0.00 in0.0 mm 0.20 in5.1 mm
05:55 AM 23.2°F-4.9°C 18.3°F-7.6°C 81% Calm Calm -- 30.04 in1017.3 mb 0.00 in0.0 mm 0.00 in0.0 mm 0.20 in5.1 mm
05:50 AM 23.2°F-4.9°C 18.3°F-7.6°C 81% Calm Calm -- 30.05 in1017.6 mb 0.00 in0.0 mm 0.00 in0.0 mm 0.20 in5.1 mm
05:45 AM 23.0°F-5.0°C 18.1°F-7.7°C 81% Calm Calm -- 30.05 in1017.6 mb 0.00 in0.0 mm 0.00 in0.0 mm 0.20 in5.1 mm
05:40 AM 23.2°F-4.9°C 18.3°F-7.6°C 81% Calm Calm -- 30.05 in1017.6 mb 0.00 in0.0 mm 0.00 in0.0 mm 0.20 in5.1 mm
05:35 AM 23.2°F-4.9°C 18.3°F-7.6°C 81% Calm Calm -- 30.06 in1017.9 mb 0.00 in0.0 mm 0.00 in0.0 mm 0.20 in5.1 mm
05:30 AM 23.2°F-4.9°C 18.3°F-7.6°C 81% Calm Calm -- 30.07 in1018.3 mb 0.00 in0.0 mm 0.00 in0.0 mm 0.20 in5.1 mm
05:25 AM 23.0°F-5.0°C 18.1°F-7.7°C 81% Calm Calm -- 30.07 in1018.3 mb 0.00 in0.0 mm 0.00 in0.0 mm 0.20 in5.1 mm
05:20 AM 23.2°F-4.9°C 18.3°F-7.6°C 81% Calm Calm -- 30.07 in1018.3 mb 0.00 in0.0 mm 0.00 in0.0 mm 0.20 in5.1 mm
05:15 AM 23.0°F-5.0°C 18.1°F-7.7°C 81% Calm Calm -- 30.07 in1018.3 mb 0.00 in0.0 mm 0.00 in0.0 mm 0.20 in5.1 mm
05:10 AM 23.0°F-5.0°C 18.1°F-7.7°C 81% Calm Calm -- 30.08 in1018.6 mb 0.00 in0.0 mm 0.00 in0.0 mm 0.20 in5.1 mm
05:05 AM 23.0°F-5.0°C 18.1°F-7.7°C 81% Calm Calm -- 30.09 in1019.0 mb 0.00 in0.0 mm 0.00 in0.0 mm 0.20 in5.1 mm
05:00 AM 23.0°F-5.0°C 18.1°F-7.7°C 81% Calm Calm -- 30.09 in1019.0 mb 0.00 in0.0 mm 0.00 in0.0 mm 0.20 in5.1 mm
04:55 AM 23.0°F-5.0°C 18.1°F-7.7°C 81% Calm Calm -- 30.09 in1019.0 mb 0.00 in0.0 mm 0.00 in0.0 mm 0.20 in5.1 mm
04:50 AM 23.0°F-5.0°C 18.1°F-7.7°C 81% Calm Calm -- 30.09 in1019.0 mb 0.00 in0.0 mm 0.00 in0.0 mm 0.20 in5.1 mm
04:45 AM 23.2°F-4.9°C 18.3°F-7.6°C 81% Calm Calm -- 30.09 in1019.0 mb 0.00 in0.0 mm 0.00 in0.0 mm 0.20 in5.1 mm
04:40 AM 23.2°F-4.9°C 18.3°F-7.6°C 81% Calm Calm -- 30.09 in1019.0 mb 0.00 in0.0 mm 0.00 in0.0 mm 0.20 in5.1 mm
04:35 AM 23.4°F-4.8°C 18.4°F-7.6°C 81% Calm Calm -- 30.09 in1019.0 mb 0.00 in0.0 mm 0.00 in0.0 mm 0.20 in5.1 mm
04:30 AM 23.5°F-4.7°C 18.6°F-7.4°C 81% Calm Calm -- 30.09 in1019.0 mb 0.00 in0.0 mm 0.00 in0.0 mm 0.20 in5.1 mm
04:25 AM 23.4°F-4.8°C 18.4°F-7.6°C 81% Calm Calm -- 30.10 in1019.3 mb 0.00 in0.0 mm 0.00 in0.0 mm 0.20 in5.1 mm
04:20 AM 23.2°F-4.9°C 18.3°F-7.6°C 81% Calm Calm -- 30.10 in1019.3 mb 0.00 in0.0 mm 0.00 in0.0 mm 0.20 in5.1 mm
04:15 AM 22.8°F-5.1°C 18.2°F-7.7°C 82% Calm Calm -- 30.11 in1019.6 mb 0.00 in0.0 mm 0.00 in0.0 mm 0.20 in5.1 mm
04:10 AM 22.5°F-5.3°C 17.8°F-7.9°C 82% Calm Calm -- 30.11 in1019.6 mb 0.00 in0.0 mm 0.00 in0.0 mm 0.20 in5.1 mm
04:05 AM 22.3°F-5.4°C 17.4°F-8.1°C 81% Calm Calm -- 30.11 in1019.6 mb 0.00 in0.0 mm 0.00 in0.0 mm 0.00 in0.0 mm
04:00 AM 22.1°F-5.5°C 17.2°F-8.2°C 81% Calm Calm -- 30.11 in1019.6 mb 0.00 in0.0 mm 0.00 in0.0 mm 0.00 in0.0 mm
03:55 AM 22.1°F-5.5°C 17.2°F-8.2°C 81% Calm Calm -- 30.12 in1020.0 mb 0.00 in0.0 mm 0.00 in0.0 mm 0.00 in0.0 mm
03:50 AM 22.1°F-5.5°C 17.2°F-8.2°C 81% Calm Calm -- 30.12 in1020.0 mb 0.00 in0.0 mm 0.00 in0.0 mm 0.00 in0.0 mm
03:45 AM 22.1°F-5.5°C 17.2°F-8.2°C 81% Calm Calm -- 30.12 in1020.0 mb 0.00 in0.0 mm 0.00 in0.0 mm 0.00 in0.0 mm
03:40 AM 22.3°F-5.4°C 17.4°F-8.1°C 81% Calm Calm -- 30.12 in1020.0 mb 0.00 in0.0 mm 0.00 in0.0 mm 0.00 in0.0 mm
03:35 AM 22.3°F-5.4°C 17.4°F-8.1°C 81% Calm Calm -- 30.13 in1020.3 mb 0.00 in0.0 mm 0.00 in0.0 mm 0.00 in0.0 mm
03:30 AM 22.5°F-5.3°C 17.8°F-7.9°C 82% Calm Calm -- 30.13 in1020.3 mb 0.00 in0.0 mm 0.00 in0.0 mm 0.00 in0.0 mm
03:25 AM 22.5°F-5.3°C 17.8°F-7.9°C 82% Calm Calm -- 30.14 in1020.7 mb 0.00 in0.0 mm 0.00 in0.0 mm 0.00 in0.0 mm
03:20 AM 22.6°F-5.2°C 18.0°F-7.8°C 82% Calm Calm -- 30.14 in1020.7 mb 0.00 in0.0 mm 0.00 in0.0 mm 0.00 in0.0 mm
03:15 AM 22.8°F-5.1°C 18.2°F-7.7°C 82% Calm Calm -- 30.14 in1020.7 mb 0.00 in0.0 mm 0.00 in0.0 mm 0.00 in0.0 mm
03:10 AM 23.0°F-5.0°C 18.1°F-7.7°C 81% Calm Calm -- 30.14 in1020.7 mb 0.00 in0.0 mm 0.00 in0.0 mm 0.00 in0.0 mm
03:05 AM 23.2°F-4.9°C 18.3°F-7.6°C 81% Calm Calm -- 30.15 in1021.0 mb 0.00 in0.0 mm 0.00 in0.0 mm 0.00 in0.0 mm
03:00 AM 23.4°F-4.8°C 18.4°F-7.6°C 81% Calm Calm -- 30.15 in1021.0 mb 0.00 in0.0 mm 0.00 in0.0 mm 0.00 in0.0 mm
02:55 AM 23.4°F-4.8°C 18.4°F-7.6°C 81% Calm Calm -- 30.15 in1021.0 mb 0.00 in0.0 mm 0.00 in0.0 mm 0.00 in0.0 mm
02:50 AM 23.4°F-4.8°C 18.4°F-7.6°C 81% Calm Calm -- 30.16 in1021.3 mb 0.00 in0.0 mm 0.00 in0.0 mm 0.00 in0.0 mm
02:45 AM 23.4°F-4.8°C 18.4°F-7.6°C 81% Calm Calm -- 30.16 in1021.3 mb 0.00 in0.0 mm 0.00 in0.0 mm 0.00 in0.0 mm
02:40 AM 23.4°F-4.8°C 18.4°F-7.6°C 81% Calm Calm -- 30.16 in1021.3 mb 0.00 in0.0 mm 0.00 in0.0 mm 0.00 in0.0 mm
02:35 AM 23.2°F-4.9°C 18.3°F-7.6°C 81% Calm Calm -- 30.16 in1021.3 mb 0.00 in0.0 mm 0.00 in0.0 mm 0.00 in0.0 mm
02:30 AM 23.2°F-4.9°C 18.3°F-7.6°C 81% Calm Calm -- 30.16 in1021.3 mb 0.00 in0.0 mm 0.00 in0.0 mm 0.00 in0.0 mm
02:25 AM 23.4°F-4.8°C 18.4°F-7.6°C 81% Calm Calm -- 30.16 in1021.3 mb 0.00 in0.0 mm 0.00 in0.0 mm 0.00 in0.0 mm
02:20 AM 23.4°F-4.8°C 18.4°F-7.6°C 81% Calm Calm -- 30.17 in1021.7 mb 0.00 in0.0 mm 0.00 in0.0 mm 0.00 in0.0 mm
02:15 AM 23.4°F-4.8°C 18.4°F-7.6°C 81% Calm Calm -- 30.17 in1021.7 mb 0.00 in0.0 mm 0.00 in0.0 mm 0.00 in0.0 mm
02:10 AM 23.4°F-4.8°C 18.4°F-7.6°C 81% Calm Calm -- 30.18 in1022.0 mb 0.00 in0.0 mm 0.00 in0.0 mm 0.00 in0.0 mm
02:05 AM 23.5°F-4.7°C 18.6°F-7.4°C 81% Calm Calm -- 30.18 in1022.0 mb 0.00 in0.0 mm 0.00 in0.0 mm 0.00 in0.0 mm
02:00 AM 23.4°F-4.8°C 18.4°F-7.6°C 81% Calm Calm -- 30.18 in1022.0 mb 0.00 in0.0 mm 0.00 in0.0 mm 0.00 in0.0 mm
01:55 AM 23.4°F-4.8°C 18.4°F-7.6°C 81% Calm Calm -- 30.18 in1022.0 mb 0.00 in0.0 mm 0.00 in0.0 mm 0.00 in0.0 mm
01:50 AM 23.4°F-4.8°C 18.4°F-7.6°C 81% Calm Calm -- 30.19 in1022.4 mb 0.00 in0.0 mm 0.00 in0.0 mm 0.00 in0.0 mm
01:45 AM 23.4°F-4.8°C 18.4°F-7.6°C 81% Calm Calm -- 30.18 in1022.0 mb 0.00 in0.0 mm 0.00 in0.0 mm 0.00 in0.0 mm
01:40 AM 23.4°F-4.8°C 18.4°F-7.6°C 81% Calm Calm -- 30.19 in1022.4 mb 0.00 in0.0 mm 0.00 in0.0 mm 0.00 in0.0 mm
01:35 AM 23.4°F-4.8°C 18.4°F-7.6°C 81% Calm Calm -- 30.20 in1022.7 mb 0.00 in0.0 mm 0.00 in0.0 mm 0.00 in0.0 mm
01:30 AM 23.4°F-4.8°C 18.4°F-7.6°C 81% Calm Calm -- 30.20 in1022.7 mb 0.00 in0.0 mm 0.00 in0.0 mm 0.00 in0.0 mm
01:25 AM 23.2°F-4.9°C 18.3°F-7.6°C 81% Calm Calm -- 30.20 in1022.7 mb 0.00 in0.0 mm 0.00 in0.0 mm 0.00 in0.0 mm
01:20 AM 23.2°F-4.9°C 18.0°F-7.8°C 80% Calm Calm -- 30.20 in1022.7 mb 0.00 in0.0 mm 0.00 in0.0 mm 0.00 in0.0 mm
01:15 AM 22.8°F-5.1°C 17.9°F-7.8°C 81% Calm Calm -- 30.21 in1023.0 mb 0.00 in0.0 mm 0.00 in0.0 mm 0.00 in0.0 mm
01:10 AM 22.6°F-5.2°C 17.7°F-7.9°C 81% Calm Calm -- 30.20 in1022.7 mb 0.00 in0.0 mm 0.00 in0.0 mm 0.00 in0.0 mm
01:05 AM 22.6°F-5.2°C 17.7°F-7.9°C 81% Calm Calm -- 30.21 in1023.0 mb 0.00 in0.0 mm 0.00 in0.0 mm 0.00 in0.0 mm
01:00 AM 22.5°F-5.3°C 17.6°F-8.0°C 81% Calm Calm -- 30.21 in1023.0 mb 0.00 in0.0 mm 0.00 in0.0 mm 0.00 in0.0 mm
12:55 AM 22.3°F-5.4°C 17.4°F-8.1°C 81% Calm Calm -- 30.22 in1023.4 mb 0.00 in0.0 mm 0.00 in0.0 mm 0.00 in0.0 mm
12:50 AM 22.1°F-5.5°C 17.2°F-8.2°C 81% Calm Calm -- 30.22 in1023.4 mb 0.00 in0.0 mm 0.00 in0.0 mm 0.00 in0.0 mm
12:45 AM 22.1°F-5.5°C 16.9°F-8.4°C 80% Calm Calm -- 30.23 in1023.7 mb 0.00 in0.0 mm 0.00 in0.0 mm 0.00 in0.0 mm
12:40 AM 22.1°F-5.5°C 16.9°F-8.4°C 80% Calm Calm -- 30.22 in1023.4 mb 0.00 in0.0 mm 0.00 in0.0 mm 0.00 in0.0 mm
12:35 AM 22.1°F-5.5°C 16.9°F-8.4°C 80% Calm Calm -- 30.23 in1023.7 mb 0.00 in0.0 mm 0.00 in0.0 mm 0.00 in0.0 mm
12:30 AM 21.9°F-5.6°C 16.7°F-8.5°C 80% Calm Calm -- 30.24 in1024.0 mb 0.00 in0.0 mm 0.00 in0.0 mm 0.00 in0.0 mm
12:25 AM 21.9°F-5.6°C 16.7°F-8.5°C 80% Calm Calm -- 30.24 in1024.0 mb 0.00 in0.0 mm 0.00 in0.0 mm 0.00 in0.0 mm
12:20 AM 22.1°F-5.5°C 16.9°F-8.4°C 80% Calm Calm -- 30.24 in1024.0 mb 0.00 in0.0 mm 0.00 in0.0 mm 0.00 in0.0 mm
12:15 AM 22.1°F-5.5°C 16.9°F-8.4°C 80% Calm Calm -- 30.25 in1024.4 mb 0.00 in0.0 mm 0.00 in0.0 mm 0.00 in0.0 mm
12:10 AM 22.5°F-5.3°C 17.3°F-8.2°C 80% Calm Calm -- 30.25 in1024.4 mb 0.00 in0.0 mm 0.00 in0.0 mm 0.00 in0.0 mm
12:05 AM 22.5°F-5.3°C 17.3°F-8.2°C 80% Calm Calm -- 30.25 in1024.4 mb 0.00 in0.0 mm 0.00 in0.0 mm 0.00 in0.0 mm
12:00 AM 22.3°F-5.4°C 17.1°F-8.3°C 80% Calm Calm -- 30.25 in1024.4 mb 0.00 in0.0 mm 0.00 in0.0 mm 0.00 in0.0 mm